Time;durP1;ratioP1;P1;durP2;ratioP2;P2;SDS_P1;SDS_P2;PMS_P1;PMS_P2;Temp;Humidity;BMP_temperature;BMP_pressure;BME280_temperature;BME280_humidity;BME280_pressure;Samples;Min_cycle;Max_cycle;Signal;HPM_P1;HPM_P2
2022/10/20 00:00:07;;;;;;;18.23;9.70;;;3.60;99.90;;;;;;4351992;28;660296;-65
2022/10/20 00:02:56;;;;;;;22.33;10.50;;;3.60;99.90;;;;;;4372857;28;658847;-65
2022/10/20 00:05:43;;;;;;;17.80;9.33;;;3.60;99.90;;;;;;4347990;28;660811;-66
2022/10/20 00:08:30;;;;;;;17.20;9.65;;;3.50;99.90;;;;;;4358789;28;658525;-66
2022/10/20 00:11:19;;;;;;;18.23;9.80;;;3.50;99.90;;;;;;4371239;28;660065;-65
2022/10/20 00:14:06;;;;;;;21.67;9.13;;;3.40;99.90;;;;;;4350870;28;658730;-65
2022/10/20 00:16:53;;;;;;;19.30;10.27;;;3.40;99.90;;;;;;4374580;28;658680;-65
2022/10/20 00:19:42;;;;;;;20.20;9.53;;;3.30;99.90;;;;;;4352428;28;659919;-66
2022/10/20 00:22:29;;;;;;;19.67;10.17;;;3.20;99.90;;;;;;4370274;28;659181;-65
2022/10/20 00:25:16;;;;;;;19.40;9.50;;;3.10;99.90;;;;;;4348292;28;660036;-65
2022/10/20 00:28:03;;;;;;;21.37;10.33;;;3.10;99.90;;;;;;4370617;28;659961;-65
2022/10/20 00:30:54;;;;;;;21.23;9.77;;;3.00;99.90;;;;;;4349472;28;658928;-65
2022/10/20 00:33:41;;;;;;;19.90;9.47;;;3.00;99.90;;;;;;4354697;28;658973;-66
2022/10/20 00:36:30;;;;;;;22.10;10.20;;;2.90;99.90;;;;;;4354758;28;659192;-65
2022/10/20 00:39:17;;;;;;;16.57;9.00;;;2.80;99.90;;;;;;4334153;28;661599;-65
2022/10/20 00:42:04;;;;;;;21.53;9.60;;;2.80;99.90;;;;;;4378040;28;658657;-66
2022/10/20 00:44:54;;;;;;;16.37;9.00;;;2.60;99.90;;;;;;4351931;28;660072;-65
2022/10/20 00:47:43;;;;;;;19.63;8.90;;;2.50;99.90;;;;;;4351234;28;658810;-65
2022/10/20 00:50:32;;;;;;;19.73;9.27;;;2.40;99.90;;;;;;4352733;28;658878;-66
2022/10/20 00:53:22;;;;;;;17.03;9.07;;;2.40;99.90;;;;;;4369462;28;659205;-67
2022/10/20 00:56:09;;;;;;;15.63;8.90;;;2.40;99.90;;;;;;4370197;28;658728;-66
2022/10/20 00:58:56;;;;;;;17.50;9.03;;;2.30;99.90;;;;;;4355362;28;658938;-65
2022/10/20 01:01:44;;;;;;;16.10;8.17;;;2.30;99.90;;;;;;4367745;28;659946;-66
2022/10/20 01:04:31;;;;;;;22.13;8.60;;;2.30;99.90;;;;;;4355478;28;659659;-65
2022/10/20 01:07:18;;;;;;;18.43;7.90;;;2.30;99.90;;;;;;4371800;28;660179;-65
2022/10/20 01:10:08;;;;;;;16.73;8.60;;;2.20;99.90;;;;;;4355696;28;658630;-66
2022/10/20 01:12:58;;;;;;;15.23;8.00;;;2.20;99.90;;;;;;4359951;28;658962;-66
2022/10/20 01:15:48;;;;;;;20.50;8.33;;;2.20;99.90;;;;;;4352724;28;658635;-66
2022/10/20 01:18:39;;;;;;;13.40;7.40;;;2.10;99.90;;;;;;4353720;28;659142;-66
2022/10/20 01:21:49;;;;;;;16.13;7.70;;;2.10;99.90;;;;;;4355607;28;659554;-66
2022/10/20 01:24:59;;;;;;;15.80;7.77;;;2.00;99.90;;;;;;4340884;28;659168;-65
2022/10/20 01:27:48;;;;;;;12.83;7.13;;;1.90;99.90;;;;;;4325377;28;659111;-66
2022/10/20 01:30:35;;;;;;;14.97;7.43;;;1.90;99.90;;;;;;4355543;28;658887;-66
2022/10/20 01:33:26;;;;;;;14.17;7.30;;;1.90;99.90;;;;;;4376584;28;658775;-65
2022/10/20 01:36:14;;;;;;;13.05;7.25;;;1.90;99.90;;;;;;4352767;28;659625;-65
2022/10/20 01:39:02;;;;;;;15.15;7.10;;;1.90;99.90;;;;;;4338808;28;660365;-66
2022/10/20 01:41:50;;;;;;;14.87;7.40;;;1.90;99.90;;;;;;4354601;28;658817;-65
2022/10/20 01:44:38;;;;;;;10.90;7.00;;;1.90;99.90;;;;;;4333863;28;660586;-65
2022/10/20 01:47:26;;;;;;;14.30;7.33;;;1.80;99.90;;;;;;4335147;28;658460;-65
2022/10/20 01:50:13;;;;;;;14.90;7.17;;;1.70;99.90;;;;;;4356174;28;659964;-65
2022/10/20 01:53:01;;;;;;;13.50;7.00;;;1.70;99.90;;;;;;4332514;28;658752;-66
2022/10/20 01:55:50;;;;;;;13.37;6.40;;;1.70;99.90;;;;;;4358315;28;659942;-67
2022/10/20 01:59:11;;;;;;;14.70;7.23;;;1.70;99.90;;;;;;4329893;28;659637;-65
2022/10/20 02:02:16;;;;;;;10.40;5.93;;;1.70;99.90;;;;;;4333424;28;659223;-65
2022/10/20 02:05:17;;;;;;;12.17;5.53;;;1.80;99.90;;;;;;4323748;28;659483;-65
2022/10/20 02:08:08;;;;;;;10.27;5.57;;;1.80;99.90;;;;;;4327513;28;659498;-65
2022/10/20 02:10:57;;;;;;;10.67;5.33;;;1.80;99.90;;;;;;4311836;28;658765;-66
2022/10/20 02:13:44;;;;;;;13.80;5.43;;;1.80;99.90;;;;;;4353922;28;659557;-65
2022/10/20 02:16:33;;;;;;;12.67;6.00;;;1.70;99.90;;;;;;4330706;28;659286;-66
2022/10/20 02:19:23;;;;;;;9.30;4.72;;;1.70;99.90;;;;;;4333572;28;658570;-66
2022/10/20 02:22:12;;;;;;;9.47;4.63;;;1.70;99.90;;;;;;4330613;28;657720;-66
2022/10/20 02:24:59;;;;;;;8.93;4.87;;;1.70;99.90;;;;;;4355600;28;657871;-66
2022/10/20 02:27:47;;;;;;;10.20;4.83;;;1.60;99.90;;;;;;4330587;28;657728;-65
2022/10/20 02:30:34;;;;;;;11.33;4.73;;;1.60;99.90;;;;;;4350949;28;659391;-66
2022/10/20 02:33:21;;;;;;;12.27;4.67;;;1.60;99.90;;;;;;4334070;28;658642;-65
2022/10/20 02:36:13;;;;;;;10.80;5.00;;;1.60;99.90;;;;;;4347794;28;659523;-65
2022/10/20 02:39:00;;;;;;;11.57;5.40;;;1.60;99.90;;;;;;4327423;28;658646;-67
2022/10/20 02:41:47;;;;;;;12.30;5.30;;;1.50;99.90;;;;;;4356208;28;659068;-65
2022/10/20 02:44:34;;;;;;;13.37;4.93;;;1.50;99.90;;;;;;4354166;28;658648;-66
2022/10/20 02:47:22;;;;;;;10.73;5.03;;;1.50;99.90;;;;;;4329252;28;658512;-65
2022/10/20 02:50:09;;;;;;;7.90;4.40;;;1.50;99.90;;;;;;4352739;28;658923;-66
2022/10/20 02:52:58;;;;;;;15.00;4.87;;;1.50;99.90;;;;;;4336499;28;657427;-66
2022/10/20 02:55:45;;;;;;;7.63;4.10;;;1.40;99.90;;;;;;4336849;28;658454;-67
2022/10/20 02:58:32;;;;;;;9.60;4.80;;;1.40;99.90;;;;;;4358019;28;658743;-65
2022/10/20 03:01:21;;;;;;;8.17;4.27;;;1.40;99.90;;;;;;4353828;28;658596;-66
2022/10/20 03:04:08;;;;;;;9.13;4.50;;;1.40;99.90;;;;;;4330189;28;658026;-66
2022/10/20 03:06:55;;;;;;;10.23;4.27;;;1.40;99.90;;;;;;4337217;28;658119;-67
2022/10/20 03:09:44;;;;;;;9.83;4.73;;;1.40;99.90;;;;;;4354416;28;659524;-65
2022/10/20 03:12:31;;;;;;;10.55;4.95;;;1.40;99.90;;;;;;4331346;28;658246;-65
2022/10/20 03:15:18;;;;;;;10.23;5.40;;;1.40;99.90;;;;;;4348492;28;659492;-65
2022/10/20 03:18:05;;;;;;;10.80;5.90;;;1.30;99.90;;;;;;4336432;28;658501;-67
2022/10/20 03:20:52;;;;;;;10.43;5.37;;;1.30;99.90;;;;;;4350940;28;659111;-65
2022/10/20 03:23:40;;;;;;;16.50;5.90;;;1.30;99.90;;;;;;4351257;28;658541;-67
2022/10/20 03:26:29;;;;;;;7.70;4.77;;;1.30;99.90;;;;;;4352694;28;657991;-67
2022/10/20 03:29:16;;;;;;;8.27;4.73;;;1.20;99.90;;;;;;4333227;28;657730;-66
2022/10/20 03:32:03;;;;;;;9.35;5.10;;;1.10;99.90;;;;;;4354020;28;658784;-65
2022/10/20 03:34:50;;;;;;;9.10;4.97;;;1.10;99.90;;;;;;4335555;28;657510;-66
2022/10/20 03:37:37;;;;;;;11.73;4.73;;;1.20;99.90;;;;;;4367757;28;659339;-66
2022/10/20 03:40:25;;;;;;;9.77;4.90;;;1.20;99.90;;;;;;4365797;28;658421;-66
2022/10/20 03:43:14;;;;;;;10.67;5.20;;;1.10;99.90;;;;;;4369266;28;658548;-65
2022/10/20 03:46:02;;;;;;;9.90;5.00;;;1.10;99.90;;;;;;4353044;28;658696;-65
2022/10/20 03:48:49;;;;;;;10.97;4.70;;;1.10;99.90;;;;;;4371742;28;658284;-65
2022/10/20 03:51:36;;;;;;;8.97;4.17;;;1.10;99.90;;;;;;4351345;28;658985;-66
2022/10/20 03:54:23;;;;;;;11.20;4.63;;;1.00;99.90;;;;;;4374493;28;658236;-65
2022/10/20 03:57:11;;;;;;;8.60;4.67;;;1.00;99.90;;;;;;4348902;28;658966;-65
2022/10/20 03:59:59;;;;;;;10.43;4.80;;;1.00;99.90;;;;;;4373937;28;658349;-66
2022/10/20 04:02:46;;;;;;;12.47;4.73;;;0.90;99.90;;;;;;4349218;28;659494;-65
2022/10/20 04:05:33;;;;;;;9.67;4.80;;;0.90;99.90;;;;;;4369886;28;659859;-66
2022/10/20 04:08:21;;;;;;;9.73;4.60;;;0.80;99.90;;;;;;4348668;28;657829;-66
2022/10/20 04:11:08;;;;;;;8.33;4.30;;;0.80;99.90;;;;;;4371398;28;659026;-65
2022/10/20 04:13:55;;;;;;;10.82;4.50;;;0.90;99.90;;;;;;4352624;28;657936;-67
2022/10/20 04:16:44;;;;;;;11.00;4.50;;;0.70;99.90;;;;;;4367579;28;659401;-66
2022/10/20 04:19:31;;;;;;;9.23;4.33;;;0.70;99.90;;;;;;4351294;28;660162;-66
2022/10/20 04:22:18;;;;;;;11.93;4.50;;;0.70;99.90;;;;;;4372054;28;657697;-65
2022/10/20 04:25:06;;;;;;;7.17;4.30;;;0.70;99.90;;;;;;4349317;28;658621;-67
2022/10/20 04:27:53;;;;;;;9.97;4.07;;;0.70;99.90;;;;;;4369308;28;659506;-66
2022/10/20 04:30:40;;;;;;;9.37;4.23;;;0.60;99.90;;;;;;4351758;28;657326;-67
2022/10/20 04:33:29;;;;;;;8.63;4.50;;;0.50;99.90;;;;;;4370974;28;658683;-65
2022/10/20 04:36:16;;;;;;;10.00;3.77;;;0.50;99.90;;;;;;4351348;28;657480;-65
2022/10/20 04:39:05;;;;;;;11.53;3.93;;;0.40;99.90;;;;;;4370497;28;660441;-67
2022/10/20 04:41:52;;;;;;;9.07;4.03;;;0.40;99.90;;;;;;4352654;28;659717;-65
2022/10/20 04:44:40;;;;;;;7.30;3.87;;;0.30;99.90;;;;;;4373156;28;657596;-66
2022/10/20 04:47:31;;;;;;;8.77;3.97;;;0.30;99.90;;;;;;4378757;28;657361;-67
2022/10/20 04:50:20;;;;;;;7.40;3.73;;;0.30;99.90;;;;;;4345438;28;658005;-66
2022/10/20 04:53:07;;;;;;;7.20;3.80;;;0.20;99.90;;;;;;4356090;28;658014;-65
2022/10/20 04:55:55;;;;;;;7.40;3.80;;;0.20;99.90;;;;;;4373150;28;657567;-65
2022/10/20 04:58:42;;;;;;;12.80;3.70;;;0.20;99.90;;;;;;4347662;28;658583;-66
2022/10/20 05:01:30;;;;;;;6.45;3.20;;;0.20;99.90;;;;;;4370858;28;659380;-65
2022/10/20 05:04:20;;;;;;;4.83;3.23;;;0.10;99.90;;;;;;4346717;28;658617;-66
2022/10/20 05:07:08;;;;;;;7.27;3.90;;;0.10;99.90;;;;;;4350326;28;659384;-65
2022/10/20 05:09:56;;;;;;;7.33;3.83;;;0.00;99.90;;;;;;4355406;28;657611;-65
2022/10/20 05:12:43;;;;;;;10.33;3.33;;;0.00;99.90;;;;;;4371949;28;658522;-65
2022/10/20 05:15:30;;;;;;;7.43;3.33;;;-0.10;99.90;;;;;;4352642;28;658817;-67
2022/10/20 05:18:17;;;;;;;10.03;3.83;;;0.00;99.90;;;;;;4376144;28;658935;-65
2022/10/20 05:21:06;;;;;;;10.03;3.67;;;-0.10;99.90;;;;;;4369519;28;659390;-65
2022/10/20 05:23:57;;;;;;;10.53;3.80;;;0.00;99.90;;;;;;4349741;28;661398;-65
2022/10/20 05:26:44;;;;;;;10.97;3.80;;;-0.10;99.90;;;;;;4344318;28;658996;-66
2022/10/20 05:29:31;;;;;;;9.27;4.03;;;-0.10;99.90;;;;;;4345535;28;659689;-66
2022/10/20 05:32:18;;;;;;;7.73;4.30;;;-0.10;99.90;;;;;;4364737;28;660225;-65
2022/10/20 05:35:06;;;;;;;8.50;4.73;;;-0.10;99.90;;;;;;4352717;28;658945;-66
2022/10/20 05:37:53;;;;;;;11.07;4.97;;;0.00;99.90;;;;;;4369537;28;660047;-65
2022/10/20 05:40:42;;;;;;;11.93;5.80;;;0.00;99.90;;;;;;4348814;28;659492;-65
2022/10/20 05:43:29;;;;;;;11.27;5.00;;;0.10;99.90;;;;;;4368067;28;659423;-67
2022/10/20 05:46:16;;;;;;;9.47;5.33;;;0.20;99.90;;;;;;4345114;28;659167;-68
2022/10/20 05:49:04;;;;;;;9.97;5.63;;;0.20;99.90;;;;;;4365728;28;657546;-68
2022/10/20 05:51:51;;;;;;;11.47;5.80;;;0.20;99.90;;;;;;4353779;28;657788;-68
2022/10/20 05:54:38;;;;;;;11.67;5.93;;;0.30;99.90;;;;;;4367666;28;660161;-68
2022/10/20 05:57:27;;;;;;;12.17;6.00;;;0.30;99.90;;;;;;4355352;28;658881;-68
2022/10/20 06:00:14;;;;;;;11.17;6.20;;;0.40;99.90;;;;;;4363375;28;659352;-68
2022/10/20 06:03:02;;;;;;;14.07;7.07;;;0.50;99.90;;;;;;4354106;28;658524;-68
2022/10/20 06:05:49;;;;;;;13.20;6.93;;;0.60;99.90;;;;;;4369554;28;658187;-68
2022/10/20 06:08:36;;;;;;;22.00;9.07;;;0.80;99.90;;;;;;4348332;28;658865;-68
2022/10/20 06:11:23;;;;;;;30.83;12.10;;;0.90;99.90;;;;;;4369220;28;659677;-68
2022/10/20 06:14:12;;;;;;;33.53;12.70;;;1.20;99.90;;;;;;4346500;28;659981;-68
2022/10/20 06:16:59;;;;;;;23.23;11.37;;;1.50;99.90;;;;;;4361727;28;659805;-68
2022/10/20 06:19:46;;;;;;;21.57;10.20;;;1.60;99.90;;;;;;4347886;28;659573;-68
2022/10/20 06:22:33;;;;;;;22.42;9.88;;;1.90;99.90;;;;;;4367791;28;660636;-68
2022/10/20 06:25:20;;;;;;;23.23;11.40;;;2.10;99.90;;;;;;4347863;28;658539;-68
2022/10/20 06:28:07;;;;;;;30.07;13.23;;;2.30;99.90;;;;;;4359817;28;660515;-68
2022/10/20 06:30:56;;;;;;;27.40;12.70;;;2.40;99.90;;;;;;4365859;28;659627;-68
2022/10/20 06:33:44;;;;;;;29.93;14.00;;;2.70;99.90;;;;;;4366379;28;659589;-68
2022/10/20 06:36:31;;;;;;;25.43;13.23;;;2.80;99.90;;;;;;4347627;28;659469;-68
2022/10/20 06:39:20;;;;;;;28.97;13.60;;;2.90;99.90;;;;;;4365014;28;660212;-68
2022/10/20 06:42:07;;;;;;;29.95;14.10;;;3.10;99.90;;;;;;4343519;28;660891;-68
2022/10/20 06:44:55;;;;;;;26.83;12.93;;;3.40;99.90;;;;;;4363756;28;660775;-68
2022/10/20 06:47:43;;;;;;;41.97;13.40;;;3.50;99.90;;;;;;4337583;28;660906;-68
2022/10/20 06:50:30;;;;;;;26.63;12.90;;;3.70;99.90;;;;;;4344097;28;659707;-68
2022/10/20 06:53:17;;;;;;;25.63;12.07;;;3.90;99.90;;;;;;4365369;28;661446;-68
2022/10/20 06:56:06;;;;;;;25.43;13.30;;;4.10;99.90;;;;;;4360376;28;659848;-68
2022/10/20 06:58:54;;;;;;;27.57;13.23;;;4.20;99.90;;;;;;4363390;28;660985;-68
2022/10/20 07:01:41;;;;;;;23.00;11.80;;;4.40;99.90;;;;;;4345247;28;660078;-68
2022/10/20 07:04:30;;;;;;;22.67;9.53;;;4.40;99.90;;;;;;4367752;28;661165;-68
2022/10/20 07:07:17;;;;;;;16.67;8.40;;;4.60;99.90;;;;;;4339679;28;659259;-69
2022/10/20 07:10:04;;;;;;;15.73;8.70;;;4.70;99.90;;;;;;4370499;28;658899;-68
2022/10/20 07:12:52;;;;;;;14.73;8.33;;;4.90;99.90;;;;;;4347613;28;659442;-68
2022/10/20 07:15:39;;;;;;;16.00;7.50;;;5.00;99.90;;;;;;4370316;28;658600;-69
2022/10/20 07:18:26;;;;;;;9.90;5.93;;;5.20;99.90;;;;;;4350443;28;658752;-69
2022/10/20 07:21:16;;;;;;;12.07;5.80;;;5.30;99.90;;;;;;4371411;28;657925;-68
2022/10/20 07:24:03;;;;;;;11.40;6.23;;;5.40;99.90;;;;;;4347381;28;659810;-69
2022/10/20 07:26:50;;;;;;;11.43;5.87;;;5.60;99.90;;;;;;4341780;28;658786;-68
2022/10/20 07:29:37;;;;;;;13.47;6.80;;;5.80;99.90;;;;;;4367715;28;660405;-68
2022/10/20 07:32:25;;;;;;;12.37;6.57;;;6.00;99.90;;;;;;4364569;28;658659;-68
2022/10/20 07:35:12;;;;;;;11.90;6.20;;;6.20;99.90;;;;;;4365473;28;659133;-68
2022/10/20 07:38:01;;;;;;;11.93;6.13;;;6.40;99.90;;;;;;4367268;28;658332;-69
2022/10/20 07:40:48;;;;;;;12.13;6.00;;;6.50;99.90;;;;;;4348197;28;659745;-69
2022/10/20 07:43:35;;;;;;;10.43;4.90;;;6.70;99.90;;;;;;4343892;28;659048;-69
2022/10/20 07:46:22;;;;;;;8.07;4.13;;;7.00;99.90;;;;;;4368877;28;659165;-69
2022/10/20 07:49:10;;;;;;;12.73;4.47;;;7.30;99.90;;;;;;4361739;28;657276;-69
2022/10/20 07:51:57;;;;;;;8.93;4.50;;;7.50;99.90;;;;;;4366774;28;659289;-69
2022/10/20 07:54:46;;;;;;;7.53;4.37;;;7.60;99.90;;;;;;4369682;28;657510;-70
2022/10/20 07:57:33;;;;;;;7.40;4.00;;;7.90;99.90;;;;;;4347125;28;658399;-70
2022/10/20 08:00:20;;;;;;;8.68;4.70;;;8.10;99.90;;;;;;4344853;28;657860;-69
2022/10/20 08:03:09;;;;;;;14.90;7.60;;;8.20;99.90;;;;;;4366688;28;658667;-70
2022/10/20 08:05:56;;;;;;;18.80;7.17;;;8.50;99.90;;;;;;4341749;28;658694;-69
2022/10/20 08:08:43;;;;;;;13.20;5.20;;;8.60;99.90;;;;;;4367303;28;658826;-69
2022/10/20 08:11:32;;;;;;;9.70;3.20;;;8.80;99.90;;;;;;4348375;28;660054;-69
2022/10/20 08:14:19;;;;;;;7.27;3.23;;;9.00;99.90;;;;;;4372782;28;659662;-70
2022/10/20 08:17:06;;;;;;;8.30;3.37;;;9.30;99.90;;;;;;4344763;28;657991;-69
2022/10/20 08:19:53;;;;;;;7.87;3.50;;;9.40;99.90;;;;;;4367822;28;659337;-69
2022/10/20 08:22:40;;;;;;;4.18;2.38;;;9.30;99.90;;;;;;4345826;28;657978;-69
2022/10/20 08:25:27;;;;;;;6.27;2.50;;;9.50;99.90;;;;;;4373439;28;656811;-69
2022/10/20 08:28:16;;;;;;;12.20;3.10;;;9.80;99.90;;;;;;4367979;28;657534;-68
2022/10/20 08:31:03;;;;;;;3.47;1.90;;;9.90;99.90;;;;;;4350981;28;659456;-68
2022/10/20 08:33:51;;;;;;;4.93;2.60;;;9.70;99.90;;;;;;4350503;28;657518;-68
2022/10/20 08:36:38;;;;;;;4.40;2.03;;;10.10;99.90;;;;;;4375053;28;659645;-69
2022/10/20 08:39:25;;;;;;;5.80;2.45;;;10.60;99.90;;;;;;4355053;28;658707;-69
2022/10/20 08:42:12;;;;;;;5.20;2.40;;;10.90;99.90;;;;;;4372496;28;659093;-69
2022/10/20 08:45:01;;;;;;;4.90;2.13;;;11.10;99.90;;;;;;4370332;28;658549;-69
2022/10/20 08:47:50;;;;;;;4.67;2.00;;;11.20;99.90;;;;;;4348675;28;658728;-70
2022/10/20 08:50:37;;;;;;;6.93;2.47;;;11.30;99.90;;;;;;4354798;28;658943;-69
2022/10/20 08:53:25;;;;;;;4.43;1.90;;;11.50;99.90;;;;;;4365031;28;658652;-69
2022/10/20 08:56:12;;;;;;;6.37;2.00;;;11.90;99.70;;;;;;4345665;28;659757;-69
2022/10/20 08:59:00;;;;;;;3.40;1.70;;;12.30;97.40;;;;;;4372722;28;658806;-69
2022/10/20 09:01:48;;;;;;;3.03;1.73;;;12.10;95.20;;;;;;4344553;28;659390;-69
2022/10/20 09:04:37;;;;;;;2.17;1.47;;;11.90;95.60;;;;;;4349823;28;658732;-69
2022/10/20 09:07:27;;;;;;;1.40;1.30;;;12.10;93.20;;;;;;4368065;28;659219;-69
2022/10/20 09:10:21;;;;;;;3.37;1.43;;;12.80;93.50;;;;;;4346918;28;659387;-69
2022/10/20 09:13:11;;;;;;;3.20;1.30;;;12.80;94.10;;;;;;4341579;28;658660;-69
2022/10/20 09:16:02;;;;;;;3.88;2.00;;;13.40;90.10;;;;;;4348699;28;659515;-70
2022/10/20 09:18:52;;;;;;;2.17;1.40;;;13.80;84.00;;;;;;4347681;28;659917;-69
2022/10/20 09:21:39;;;;;;;2.13;1.50;;;13.80;78.30;;;;;;4348301;28;658779;-69
2022/10/20 09:24:28;;;;;;;3.60;1.80;;;13.90;79.90;;;;;;4345042;28;659386;-68
2022/10/20 09:27:21;;;;;;;3.10;1.77;;;14.30;80.30;;;;;;4346501;28;659004;-69
2022/10/20 09:30:16;;;;;;;3.30;1.60;;;14.20;77.70;;;;;;4345530;28;659390;-69
2022/10/20 09:33:19;;;;;;;2.63;1.53;;;14.40;76.50;;;;;;4344220;28;659510;-69
2022/10/20 09:36:13;;;;;;;2.70;1.10;;;14.80;78.60;;;;;;4344851;28;658469;-69
2022/10/20 09:39:00;;;;;;;3.50;1.17;;;14.50;72.90;;;;;;4326919;28;659002;-69
2022/10/20 09:41:47;;;;;;;3.27;1.10;;;14.50;71.70;;;;;;4359314;28;659477;-69
2022/10/20 09:44:38;;;;;;;1.77;1.10;;;14.50;68.80;;;;;;4355335;28;660610;-69
2022/10/20 09:47:26;;;;;;;3.73;1.87;;;14.70;70.30;;;;;;4312214;28;658980;-68
2022/10/20 09:50:18;;;;;;;4.93;1.70;;;14.80;73.70;;;;;;4357117;28;660020;-69
2022/10/20 09:53:17;;;;;;;4.07;1.20;;;15.10;70.90;;;;;;4311034;28;658759;-69
2022/10/20 09:56:05;;;;;;;4.00;1.40;;;15.30;66.20;;;;;;4332398;28;658377;-69
2022/10/20 09:58:52;;;;;;;2.23;1.50;;;15.60;64.00;;;;;;4323549;28;659067;-69
2022/10/20 10:01:52;;;;;;;6.13;1.70;;;15.60;69.70;;;;;;4360470;28;658490;-69
2022/10/20 10:04:40;;;;;;;4.87;2.73;;;15.80;66.20;;;;;;4332357;28;659842;-69
2022/10/20 10:07:31;;;;;;;4.60;1.67;;;16.60;63.70;;;;;;4331389;28;659983;-69
2022/10/20 10:10:27;;;;;;;4.03;1.83;;;16.50;60.30;;;;;;4323591;28;659196;-68
2022/10/20 10:13:23;;;;;;;2.83;1.70;;;15.50;64.20;;;;;;4330415;28;658383;-68
2022/10/20 10:16:13;;;;;;;3.77;2.07;;;16.10;61.40;;;;;;4320753;28;659181;-69
2022/10/20 10:19:01;;;;;;;2.30;1.10;;;16.80;64.20;;;;;;4344690;28;658535;-69
2022/10/20 10:21:51;;;;;;;1.90;1.03;;;16.50;60.00;;;;;;4355300;28;660249;-69
2022/10/20 10:24:42;;;;;;;1.60;0.93;;;16.70;58.80;;;;;;4330965;28;660127;-69
2022/10/20 10:27:31;;;;;;;3.43;0.83;;;17.10;56.20;;;;;;4330397;28;659159;-69
2022/10/20 10:30:27;;;;;;;0.73;0.70;;;16.60;55.50;;;;;;4334435;28;660292;-69
2022/10/20 10:33:23;;;;;;;1.30;0.70;;;16.60;57.50;;;;;;4325654;28;658647;-69
2022/10/20 10:36:14;;;;;;;0.80;0.60;;;16.20;56.80;;;;;;4309830;28;659189;-69
2022/10/20 10:39:02;;;;;;;1.10;0.60;;;16.40;57.50;;;;;;4332278;28;659597;-69
2022/10/20 10:41:58;;;;;;;4.73;1.33;;;16.70;56.20;;;;;;4349966;28;658925;-69
2022/10/20 10:44:52;;;;;;;2.10;0.90;;;17.10;55.50;;;;;;4309993;28;659368;-69
2022/10/20 10:48:06;;;;;;;2.57;1.27;;;17.00;54.70;;;;;;4333906;28;658164;-69
2022/10/20 10:50:56;;;;;;;2.13;1.17;;;17.10;54.70;;;;;;4331971;28;659010;-69
2022/10/20 10:53:50;;;;;;;2.40;1.30;;;17.20;54.40;;;;;;4332000;28;659633;-69
2022/10/20 10:56:40;;;;;;;1.87;0.90;;;16.70;53.30;;;;;;4328818;28;659072;-69
2022/10/20 10:59:29;;;;;;;6.03;1.20;;;17.00;52.20;;;;;;4336243;28;659611;-69
2022/10/20 11:02:43;;;;;;;2.43;1.30;;;17.40;53.40;;;;;;4333145;28;659763;-69
2022/10/20 11:05:56;;;;;;;3.33;1.73;;;17.00;53.00;;;;;;4316757;28;658460;-69
2022/10/20 11:08:54;;;;;;;3.87;1.90;;;16.90;54.60;;;;;;4325198;28;659441;-69
2022/10/20 11:11:46;;;;;;;5.17;1.70;;;17.00;56.40;;;;;;4303684;28;659905;-69
2022/10/20 11:14:38;;;;;;;2.83;1.53;;;17.50;54.80;;;;;;4331854;28;659429;-69
2022/10/20 11:17:34;;;;;;;3.30;1.70;;;18.10;52.90;;;;;;4319577;28;659177;-69
2022/10/20 11:20:35;;;;;;;6.07;1.73;;;18.10;52.00;;;;;;4307913;28;660537;-69
2022/10/20 11:23:49;;;;;;;3.87;1.70;;;18.00;52.40;;;;;;4334131;28;659187;-69
2022/10/20 11:26:37;;;;;;;5.70;1.70;;;18.20;50.70;;;;;;4312319;28;661210;-69
2022/10/20 11:29:28;;;;;;;3.43;1.97;;;18.60;50.10;;;;;;4352626;28;659333;-69
2022/10/20 11:32:25;;;;;;;4.13;1.90;;;18.30;50.80;;;;;;4323548;28;658770;-69
2022/10/20 11:35:16;;;;;;;5.13;1.90;;;18.40;50.90;;;;;;4333149;28;658915;-69
2022/10/20 11:38:12;;;;;;;6.80;2.80;;;18.40;50.70;;;;;;4343346;28;659472;-69
2022/10/20 11:41:00;;;;;;;8.60;2.30;;;18.90;50.70;;;;;;4346151;28;658545;-69
2022/10/20 11:43:50;;;;;;;4.70;2.33;;;19.20;51.40;;;;;;4346493;28;659280;-69
2022/10/20 11:46:39;;;;;;;4.87;1.90;;;19.80;48.70;;;;;;4350449;28;659343;-69
2022/10/20 11:49:26;;;;;;;5.23;2.23;;;19.90;47.00;;;;;;4355120;28;658742;-69
2022/10/20 11:52:40;;;;;;;6.13;2.20;;;20.10;47.20;;;;;;4371666;28;658948;-69
2022/10/20 11:55:43;;;;;;;3.80;2.03;;;19.70;47.70;;;;;;4324151;28;658853;-69
2022/10/20 11:58:42;;;;;;;2.33;1.60;;;19.60;46.90;;;;;;4330442;28;658440;-69
2022/10/20 12:01:32;;;;;;;5.03;2.00;;;19.30;47.80;;;;;;4349175;28;659536;-69
2022/10/20 12:04:38;;;;;;;4.97;1.90;;;19.70;46.90;;;;;;4350517;28;658555;-69
2022/10/20 12:07:47;;;;;;;3.07;1.50;;;19.60;46.60;;;;;;4321684;28;658954;-69
2022/10/20 12:10:37;;;;;;;7.63;1.70;;;19.50;43.90;;;;;;4348513;28;659002;-69
2022/10/20 12:13:33;;;;;;;2.90;1.43;;;19.80;45.80;;;;;;4348406;28;659630;-69
2022/10/20 12:16:57;;;;;;;3.97;1.50;;;20.20;45.50;;;;;;4330117;28;659541;-69
2022/10/20 12:19:44;;;;;;;4.10;1.70;;;19.90;45.80;;;;;;4345592;28;659511;-70
2022/10/20 12:22:40;;;;;;;6.80;1.30;;;19.80;43.80;;;;;;4351143;28;658586;-70
2022/10/20 12:25:42;;;;;;;3.03;1.50;;;19.80;45.50;;;;;;4329673;28;659370;-71
2022/10/20 12:28:42;;;;;;;4.50;1.60;;;20.10;46.30;;;;;;4348767;28;658643;-69
2022/10/20 12:32:02;;;;;;;3.37;1.40;;;21.10;44.40;;;;;;4351013;28;658419;-69
2022/10/20 12:34:50;;;;;;;2.53;1.20;;;20.50;43.40;;;;;;4316644;28;659260;-69
2022/10/20 12:37:37;;;;;;;1.60;1.20;;;21.00;43.60;;;;;;4351930;28;658955;-69
2022/10/20 12:40:26;;;;;;;2.80;1.40;;;21.40;43.10;;;;;;4372905;28;658487;-69
2022/10/20 12:43:31;;;;;;;3.87;1.20;;;21.80;42.00;;;;;;4341949;28;659168;-69
2022/10/20 12:46:20;;;;;;;1.60;1.30;;;22.00;42.20;;;;;;4344718;28;660153;-69
2022/10/20 12:49:08;;;;;;;4.37;1.10;;;21.80;40.20;;;;;;4346122;28;659632;-69
2022/10/20 12:51:56;;;;;;;1.43;1.00;;;21.30;40.00;;;;;;4351425;28;658592;-69
2022/10/20 12:54:43;;;;;;;2.27;1.20;;;21.50;40.60;;;;;;4373157;28;659496;-69
2022/10/20 12:57:34;;;;;;;3.40;1.40;;;22.50;39.00;;;;;;4352101;28;658516;-69
2022/10/20 13:00:58;;;;;;;2.30;1.50;;;23.50;38.10;;;;;;4348779;28;660768;-69
2022/10/20 13:03:47;;;;;;;2.17;1.17;;;23.20;38.00;;;;;;4332149;28;658772;-69
2022/10/20 13:06:41;;;;;;;3.93;1.00;;;24.00;37.50;;;;;;4372417;28;658994;-69
2022/10/20 13:09:29;;;;;;;2.33;1.20;;;24.40;35.90;;;;;;4348173;28;658998;-69
2022/10/20 13:12:25;;;;;;;2.73;1.10;;;24.50;36.20;;;;;;4352398;28;658438;-69
2022/10/20 13:15:12;;;;;;;2.83;1.10;;;24.70;35.20;;;;;;4324344;28;659534;-69
2022/10/20 13:18:01;;;;;;;1.88;1.15;;;25.00;35.00;;;;;;4367193;28;658943;-69
2022/10/20 13:20:51;;;;;;;4.43;1.30;;;25.60;34.80;;;;;;4346749;28;659532;-69
2022/10/20 13:23:39;;;;;;;4.20;1.38;;;25.60;34.40;;;;;;4354418;28;658809;-69
2022/10/20 13:26:28;;;;;;;2.75;1.30;;;25.90;34.10;;;;;;4354700;28;658747;-69
2022/10/20 13:29:19;;;;;;;1.85;1.00;;;25.90;33.50;;;;;;4348794;28;658819;-69
2022/10/20 13:32:12;;;;;;;2.47;1.30;;;26.00;33.90;;;;;;4347407;28;659935;-69
2022/10/20 13:35:02;;;;;;;1.42;0.93;;;26.30;32.90;;;;;;4370717;28;660540;-69
2022/10/20 13:37:57;;;;;;;1.67;1.00;;;25.60;33.90;;;;;;4371786;28;660572;-69
2022/10/20 13:40:48;;;;;;;3.90;1.25;;;25.00;34.20;;;;;;4348838;28;658906;-69
2022/10/20 13:43:37;;;;;;;3.08;1.20;;;24.30;33.70;;;;;;4339907;28;659741;-69
2022/10/20 13:46:32;;;;;;;2.92;1.15;;;23.60;35.20;;;;;;4366346;28;658759;-69
2022/10/20 13:49:32;;;;;;;2.10;1.10;;;22.90;36.40;;;;;;4343228;28;658883;-69
2022/10/20 13:52:20;;;;;;;2.95;1.40;;;24.20;36.20;;;;;;4352128;28;658748;-69
2022/10/20 13:55:14;;;;;;;2.77;1.50;;;23.00;35.10;;;;;;4351827;28;659397;-69
2022/10/20 13:58:05;;;;;;;4.23;1.50;;;22.60;36.20;;;;;;4343303;28;658844;-69
2022/10/20 14:00:58;;;;;;;1.60;1.30;;;23.10;37.70;;;;;;4346958;28;660323;-69
2022/10/20 14:03:46;;;;;;;3.43;1.90;;;23.60;38.70;;;;;;4333115;28;659309;-69
2022/10/20 14:06:34;;;;;;;3.87;2.07;;;22.70;37.00;;;;;;4368995;28;659181;-69
2022/10/20 14:09:22;;;;;;;2.63;1.60;;;21.20;38.80;;;;;;4354171;28;658481;-69
2022/10/20 14:12:22;;;;;;;2.53;1.47;;;20.30;40.60;;;;;;4364888;28;658530;-68
2022/10/20 14:15:12;;;;;;;3.60;1.40;;;20.70;40.70;;;;;;4349161;28;658729;-69
2022/10/20 14:18:01;;;;;;;2.77;1.20;;;20.90;40.20;;;;;;4350931;28;659338;-68
2022/10/20 14:20:54;;;;;;;3.43;1.20;;;20.90;39.40;;;;;;4351470;28;659431;-69
2022/10/20 14:23:43;;;;;;;3.33;1.60;;;19.20;41.10;;;;;;4351537;28;659438;-68
2022/10/20 14:26:30;;;;;;;1.83;1.27;;;20.90;42.10;;;;;;4364836;28;658448;-69
2022/10/20 14:29:19;;;;;;;2.00;1.33;;;22.70;39.40;;;;;;4375613;28;659198;-68
2022/10/20 14:32:06;;;;;;;3.63;1.50;;;24.00;38.40;;;;;;4350916;28;658664;-69
2022/10/20 14:34:54;;;;;;;3.43;1.53;;;24.90;35.80;;;;;;4368212;28;659355;-69